Time;durP1;ratioP1;P1;durP2;ratioP2;P2;SDS_P1;SDS_P2;PMS_P1;PMS_P2;Temp;Humidity;BMP_temperature;BMP_pressure;BME280_temperature;BME280_humidity;BME280_pressure;Samples;Min_cycle;Max_cycle;Signal;HPM_P1;HPM_P2
2023/11/11 00:01:21;;;;;;;15.50;3.08;;;11.00;96.50;;;;;;7377085;19;20066;-73
2023/11/11 00:03:50;;;;;;;8.63;3.17;;;11.00;96.50;;;;;;7377141;19;20267;-73
2023/11/11 00:06:19;;;;;;;9.40;2.90;;;10.90;96.40;;;;;;7398267;19;20031;-73
2023/11/11 00:08:48;;;;;;;12.60;3.03;;;10.90;96.40;;;;;;7376170;19;20003;-73
2023/11/11 00:11:16;;;;;;;9.65;2.88;;;10.90;96.40;;;;;;7376624;19;20533;-73
2023/11/11 00:13:46;;;;;;;15.52;2.65;;;10.90;96.40;;;;;;7377007;19;20003;-73
2023/11/11 00:16:15;;;;;;;9.82;2.30;;;10.90;96.40;;;;;;7376985;19;20074;-74
2023/11/11 00:18:46;;;;;;;13.65;3.30;;;10.90;96.40;;;;;;7375771;19;20015;-73
2023/11/11 00:21:15;;;;;;;12.63;6.10;;;10.80;96.30;;;;;;7397694;19;20271;-73
2023/11/11 00:23:43;;;;;;;14.48;3.72;;;10.90;96.30;;;;;;7376028;19;20003;-73
2023/11/11 00:26:12;;;;;;;7.97;2.88;;;10.90;96.30;;;;;;7376457;19;20056;-73
2023/11/11 00:28:41;;;;;;;10.48;3.03;;;10.80;96.20;;;;;;7376438;19;20258;-73
2023/11/11 00:31:10;;;;;;;5.35;2.58;;;10.80;96.10;;;;;;7376100;19;20007;-74
2023/11/11 00:33:39;;;;;;;8.20;2.45;;;10.70;96.10;;;;;;7392013;19;20075;-73
2023/11/11 00:36:12;;;;;;;6.38;1.95;;;10.70;96.30;;;;;;7405142;19;20010;-73
2023/11/11 00:38:40;;;;;;;7.93;2.17;;;10.60;96.30;;;;;;7381497;19;20218;-73
2023/11/11 00:41:09;;;;;;;11.57;2.28;;;10.60;96.30;;;;;;7382395;19;20010;-73
2023/11/11 00:43:37;;;;;;;2.78;1.77;;;10.60;96.30;;;;;;7383358;19;20087;-74
2023/11/11 00:46:06;;;;;;;10.43;2.05;;;10.60;96.20;;;;;;7383455;19;20066;-73
2023/11/11 00:48:35;;;;;;;5.78;2.60;;;10.60;96.00;;;;;;7405188;19;20015;-73
2023/11/11 00:51:03;;;;;;;7.40;2.35;;;10.60;95.90;;;;;;7382796;19;20007;-73
2023/11/11 00:53:35;;;;;;;12.30;4.82;;;10.60;95.90;;;;;;7382658;19;20007;-73
2023/11/11 00:56:03;;;;;;;13.70;3.97;;;10.60;95.90;;;;;;7381949;19;20003;-73
2023/11/11 00:58:33;;;;;;;14.18;3.22;;;10.60;95.80;;;;;;7384924;19;20052;-73
2023/11/11 01:01:03;;;;;;;13.88;4.47;;;10.50;95.60;;;;;;7383101;19;20381;-73
2023/11/11 01:03:31;;;;;;;18.55;5.50;;;10.50;95.60;;;;;;7405589;19;20291;-73
2023/11/11 01:06:00;;;;;;;11.00;3.78;;;10.50;95.60;;;;;;7385416;19;20020;-73
2023/11/11 01:08:30;;;;;;;10.85;3.42;;;10.50;95.60;;;;;;7385428;19;20029;-72
2023/11/11 01:11:02;;;;;;;83.68;8.43;;;10.40;95.40;;;;;;7385598;19;20003;-73
2023/11/11 01:13:31;;;;;;;12.50;4.63;;;10.40;95.80;;;;;;7386637;19;20006;-73
2023/11/11 01:16:00;;;;;;;18.52;5.55;;;10.40;96.00;;;;;;7383729;19;19996;-73
2023/11/11 01:18:29;;;;;;;14.27;6.00;;;10.40;96.20;;;;;;7402743;19;20353;-73
2023/11/11 01:20:58;;;;;;;10.85;4.82;;;10.40;96.10;;;;;;7381528;19;20146;-72
2023/11/11 01:23:27;;;;;;;20.75;4.45;;;10.40;95.80;;;;;;7381641;19;20023;-73
2023/11/11 01:25:57;;;;;;;16.88;4.40;;;10.30;95.60;;;;;;7382079;19;20385;-72
2023/11/11 01:28:29;;;;;;;13.98;4.78;;;10.30;95.50;;;;;;7382814;19;20099;-73
2023/11/11 01:30:57;;;;;;;9.43;4.20;;;10.20;95.60;;;;;;7380059;19;20030;-72
2023/11/11 01:33:26;;;;;;;10.13;4.30;;;10.20;95.60;;;;;;7404587;19;20010;-72
2023/11/11 01:35:55;;;;;;;13.95;3.22;;;10.20;95.70;;;;;;7380940;19;20300;-73
2023/11/11 01:38:23;;;;;;;8.82;3.97;;;10.10;95.80;;;;;;7380281;19;20021;-73
2023/11/11 01:40:52;;;;;;;17.80;3.30;;;10.20;95.70;;;;;;7380628;19;20070;-73
2023/11/11 01:43:21;;;;;;;9.43;3.85;;;10.20;95.70;;;;;;7381292;19;20007;-72
2023/11/11 01:45:54;;;;;;;8.45;3.85;;;10.10;95.60;;;;;;7381453;19;20063;-72
2023/11/11 01:48:23;;;;;;;8.30;3.67;;;10.20;95.60;;;;;;7402604;19;20496;-72
2023/11/11 01:50:52;;;;;;;11.63;4.15;;;10.20;95.50;;;;;;7380269;19;20016;-72
2023/11/11 01:53:24;;;;;;;11.30;3.67;;;10.10;95.20;;;;;;7380885;19;20115;-73
2023/11/11 01:55:53;;;;;;;18.63;4.53;;;10.10;95.30;;;;;;7381041;19;20006;-73
2023/11/11 01:58:23;;;;;;;8.73;3.33;;;10.10;95.30;;;;;;7380910;19;19999;-73
2023/11/11 02:00:54;;;;;;;10.05;4.03;;;10.10;95.30;;;;;;7380897;19;20010;-73
2023/11/11 02:03:23;;;;;;;18.50;4.50;;;10.10;95.30;;;;;;7400364;19;20019;-73
2023/11/11 02:05:55;;;;;;;7.10;3.75;;;10.10;95.30;;;;;;7379940;19;20003;-73
2023/11/11 02:08:30;;;;;;;5.65;3.00;;;10.10;95.20;;;;;;7380326;19;20006;-73
2023/11/11 02:11:00;;;;;;;17.77;4.38;;;10.00;95.30;;;;;;7380529;19;20003;-73
2023/11/11 02:13:34;;;;;;;15.02;5.07;;;10.00;95.20;;;;;;7380546;19;20031;-73
2023/11/11 02:16:06;;;;;;;6.55;3.83;;;10.00;95.20;;;;;;7380253;19;20011;-73
2023/11/11 02:18:35;;;;;;;14.55;3.80;;;10.00;95.20;;;;;;7401272;19;20006;-73
2023/11/11 02:21:03;;;;;;;15.13;3.30;;;10.00;95.20;;;;;;7379659;19;20003;-73
2023/11/11 02:23:36;;;;;;;12.43;3.67;;;10.00;95.10;;;;;;7379787;19;20062;-74
2023/11/11 02:26:06;;;;;;;13.38;3.85;;;10.00;95.10;;;;;;7379753;19;20411;-73
2023/11/11 02:28:35;;;;;;;19.42;5.22;;;9.90;94.90;;;;;;7379963;19;20021;-73
2023/11/11 02:31:05;;;;;;;16.60;5.75;;;9.90;94.80;;;;;;7380174;19;20161;-73
2023/11/11 02:33:35;;;;;;;9.23;4.00;;;9.80;94.70;;;;;;7402200;19;20007;-73
2023/11/11 02:36:06;;;;;;;17.55;3.95;;;9.80;94.80;;;;;;7379378;19;20002;-73
2023/11/11 02:38:37;;;;;;;10.70;3.97;;;9.70;94.90;;;;;;7378554;19;20286;-73
2023/11/11 02:41:06;;;;;;;6.38;3.17;;;9.70;94.90;;;;;;7378800;19;20014;-73
2023/11/11 02:43:35;;;;;;;14.88;3.10;;;9.60;95.00;;;;;;7379306;19;20282;-73
2023/11/11 02:46:04;;;;;;;8.05;3.33;;;9.60;95.10;;;;;;7379365;19;20473;-73
2023/11/11 02:48:33;;;;;;;4.60;2.50;;;9.60;95.10;;;;;;7401366;19;20075;-74
2023/11/11 02:51:01;;;;;;;5.07;2.85;;;9.60;95.20;;;;;;7378769;19;20057;-74
2023/11/11 02:53:30;;;;;;;9.30;3.47;;;9.70;95.20;;;;;;7378676;19;20075;-73
2023/11/11 02:56:01;;;;;;;11.65;3.50;;;9.70;95.10;;;;;;7377456;19;20007;-73
2023/11/11 02:58:30;;;;;;;14.32;3.80;;;9.70;95.00;;;;;;7378483;19;20074;-73
2023/11/11 03:00:59;;;;;;;8.60;2.85;;;9.70;95.20;;;;;;7379140;19;20026;-73
2023/11/11 03:03:27;;;;;;;4.85;2.28;;;9.70;95.00;;;;;;7400197;19;20014;-73
2023/11/11 03:05:56;;;;;;;5.97;3.13;;;9.80;95.10;;;;;;7378339;19;20024;-73
2023/11/11 03:08:25;;;;;;;8.10;3.70;;;9.80;95.20;;;;;;7378482;19;20011;-73
2023/11/11 03:10:54;;;;;;;11.07;2.88;;;9.80;95.20;;;;;;7378883;19;20015;-73
2023/11/11 03:13:25;;;;;;;13.40;3.05;;;9.80;95.30;;;;;;7378535;19;20010;-73
2023/11/11 03:15:54;;;;;;;10.25;3.40;;;9.80;95.50;;;;;;7378757;19;20010;-74
2023/11/11 03:18:23;;;;;;;15.65;3.30;;;9.90;95.40;;;;;;7399121;19;20006;-73
2023/11/11 03:20:52;;;;;;;11.20;3.35;;;9.90;95.30;;;;;;7379758;19;19999;-73
2023/11/11 03:23:21;;;;;;;6.60;2.97;;;9.90;95.40;;;;;;7378620;19;20021;-73
2023/11/11 03:25:50;;;;;;;10.68;2.67;;;9.90;95.30;;;;;;7378407;19;20007;-74
2023/11/11 03:28:18;;;;;;;9.82;3.33;;;9.90;95.30;;;;;;7377943;19;20023;-73
2023/11/11 03:30:50;;;;;;;8.93;3.10;;;9.90;95.30;;;;;;7378700;19;20027;-73
2023/11/11 03:33:19;;;;;;;5.93;2.90;;;9.80;95.30;;;;;;7399986;19;20011;-73
2023/11/11 03:35:50;;;;;;;13.73;4.00;;;9.80;95.30;;;;;;7377618;19;20110;-73
2023/11/11 03:38:19;;;;;;;8.43;3.22;;;9.80;95.20;;;;;;7379487;19;20003;-73
2023/11/11 03:40:48;;;;;;;9.10;2.80;;;9.80;95.30;;;;;;7382000;19;20024;-73
2023/11/11 03:43:16;;;;;;;11.82;3.58;;;9.80;95.30;;;;;;7383694;19;20059;-74
2023/11/11 03:45:45;;;;;;;13.43;3.17;;;9.80;95.40;;;;;;7383551;19;20010;-73
2023/11/11 03:48:16;;;;;;;10.23;3.53;;;9.80;95.30;;;;;;7405908;19;20015;-73
2023/11/11 03:50:45;;;;;;;11.77;3.28;;;9.70;95.10;;;;;;7383776;19;20006;-73
2023/11/11 03:53:14;;;;;;;10.60;2.85;;;9.70;95.20;;;;;;7381001;19;20346;-72
2023/11/11 03:55:43;;;;;;;8.00;2.65;;;9.70;95.20;;;;;;7377923;19;20058;-73
2023/11/11 03:58:11;;;;;;;3.28;2.33;;;9.70;95.20;;;;;;7377889;19;20062;-72
2023/11/11 04:00:44;;;;;;;7.38;3.47;;;9.70;95.20;;;;;;7375509;19;20007;-73
2023/11/11 04:03:16;;;;;;;10.07;4.30;;;9.80;95.20;;;;;;7402852;19;20062;-72
2023/11/11 04:05:46;;;;;;;21.48;5.45;;;9.80;95.30;;;;;;7382834;19;20119;-73
2023/11/11 04:08:15;;;;;;;7.35;3.55;;;9.70;95.30;;;;;;7382915;19;20066;-73
2023/11/11 04:10:44;;;;;;;7.78;3.22;;;9.70;95.10;;;;;;7384715;19;20007;-73
2023/11/11 04:13:13;;;;;;;6.50;3.10;;;9.70;95.20;;;;;;7384395;19;20263;-73
2023/11/11 04:15:41;;;;;;;9.65;3.10;;;9.70;95.20;;;;;;7384299;19;20011;-73
2023/11/11 04:18:10;;;;;;;17.98;3.15;;;9.70;95.30;;;;;;7410344;19;20301;-73
2023/11/11 04:20:41;;;;;;;11.45;2.83;;;9.80;95.30;;;;;;7381567;19;20006;-72
2023/11/11 04:23:10;;;;;;;6.97;2.80;;;9.80;95.30;;;;;;7384025;19;20019;-72
2023/11/11 04:25:39;;;;;;;8.68;3.95;;;9.90;95.20;;;;;;7383960;19;20074;-72
2023/11/11 04:28:07;;;;;;;12.50;4.45;;;9.90;95.10;;;;;;7384010;19;20027;-73
2023/11/11 04:30:36;;;;;;;15.60;5.05;;;9.90;95.10;;;;;;7405661;19;20027;-73
2023/11/11 04:33:05;;;;;;;13.18;4.97;;;9.90;95.50;;;;;;7383477;19;20428;-73
2023/11/11 04:35:34;;;;;;;9.82;4.53;;;9.80;95.40;;;;;;7383155;19;20002;-73
2023/11/11 04:38:07;;;;;;;9.95;4.03;;;9.80;95.20;;;;;;7383690;19;20019;-73
2023/11/11 04:40:36;;;;;;;7.18;3.30;;;9.80;95.30;;;;;;7382692;19;20006;-74
2023/11/11 04:43:05;;;;;;;11.43;4.05;;;9.70;95.20;;;;;;7383541;19;20007;-73
2023/11/11 04:45:34;;;;;;;6.45;3.13;;;9.70;95.50;;;;;;7404588;19;20623;-73
2023/11/11 04:48:03;;;;;;;12.60;3.13;;;9.70;95.50;;;;;;7382902;19;20614;-74
2023/11/11 04:50:31;;;;;;;10.07;2.95;;;9.70;95.50;;;;;;7382873;19;19999;-74
2023/11/11 04:53:00;;;;;;;7.88;2.92;;;9.70;95.50;;;;;;7383224;19;20003;-73
2023/11/11 04:55:32;;;;;;;12.25;3.28;;;9.70;95.40;;;;;;7383042;19;20031;-73
2023/11/11 04:58:01;;;;;;;9.55;3.15;;;9.60;95.40;;;;;;7382812;19;20078;-73
2023/11/11 05:00:29;;;;;;;10.27;4.00;;;9.60;95.50;;;;;;7402523;19;20234;-73
2023/11/11 05:03:00;;;;;;;14.68;3.83;;;9.50;95.20;;;;;;7382090;19;20062;-73
2023/11/11 05:05:28;;;;;;;7.20;4.25;;;9.50;95.30;;;;;;7382404;19;20267;-73
2023/11/11 05:07:57;;;;;;;12.70;3.78;;;9.50;95.40;;;;;;7382844;19;20065;-73
2023/11/11 05:10:27;;;;;;;11.15;3.50;;;9.40;95.30;;;;;;7382521;19;20258;-73
2023/11/11 05:12:59;;;;;;;6.85;3.13;;;9.40;95.40;;;;;;7383289;19;20007;-74
2023/11/11 05:15:27;;;;;;;10.50;4.15;;;9.40;95.60;;;;;;7404368;19;20006;-73
2023/11/11 05:17:56;;;;;;;11.00;3.50;;;9.40;95.70;;;;;;7380702;19;20002;-74
2023/11/11 05:20:25;;;;;;;10.77;3.85;;;9.40;95.60;;;;;;7380403;19;20362;-73
2023/11/11 05:22:54;;;;;;;9.25;3.65;;;9.30;95.60;;;;;;7382336;19;20062;-73
2023/11/11 05:25:22;;;;;;;8.68;2.97;;;9.40;95.50;;;;;;7381806;19;20366;-73
2023/11/11 05:27:52;;;;;;;7.07;3.17;;;9.40;95.60;;;;;;7382813;19;20067;-73
2023/11/11 05:30:25;;;;;;;11.48;3.28;;;9.40;95.60;;;;;;7403102;19;20606;-73
2023/11/11 05:32:54;;;;;;;10.85;3.40;;;9.40;95.60;;;;;;7381448;19;20070;-73
2023/11/11 05:35:22;;;;;;;9.70;2.75;;;9.40;95.30;;;;;;7381734;19;20007;-73
2023/11/11 05:37:53;;;;;;;9.60;2.80;;;9.40;95.30;;;;;;7381595;19;20006;-73
2023/11/11 05:40:22;;;;;;;6.68;2.75;;;9.30;95.40;;;;;;7380852;19;20006;-73
2023/11/11 05:42:51;;;;;;;6.60;2.47;;;9.30;95.40;;;;;;7381239;19;20006;-73
2023/11/11 05:45:24;;;;;;;5.53;2.50;;;9.30;95.60;;;;;;7402829;19;20003;-73
2023/11/11 05:47:53;;;;;;;3.83;2.05;;;9.30;95.80;;;;;;7380801;19;20025;-73
2023/11/11 05:50:21;;;;;;;8.95;2.13;;;9.30;95.30;;;;;;7381299;19;20002;-73
2023/11/11 05:52:50;;;;;;;9.52;2.53;;;9.30;95.30;;;;;;7381169;19;20010;-73
2023/11/11 05:55:19;;;;;;;8.50;2.30;;;9.20;95.40;;;;;;7381712;19;20013;-73
2023/11/11 05:57:48;;;;;;;15.10;1.70;;;9.20;95.50;;;;;;7381018;19;20010;-72
2023/11/11 06:00:16;;;;;;;8.57;2.50;;;9.20;95.60;;;;;;7400974;19;20391;-72
2023/11/11 06:02:48;;;;;;;12.70;2.70;;;9.20;95.60;;;;;;7380132;19;20010;-73
2023/11/11 06:05:16;;;;;;;6.72;2.70;;;9.20;95.40;;;;;;7380350;19;20350;-73
2023/11/11 06:07:45;;;;;;;5.07;2.40;;;9.20;95.50;;;;;;7380546;19;20006;-73
2023/11/11 06:10:14;;;;;;;4.20;2.10;;;9.20;95.60;;;;;;7382940;19;20020;-73
2023/11/11 06:12:43;;;;;;;4.53;2.40;;;9.20;95.60;;;;;;7380653;19;20020;-73
2023/11/11 06:15:12;;;;;;;7.72;2.42;;;9.20;95.50;;;;;;7401640;19;20016;-73
2023/11/11 06:17:41;;;;;;;8.02;3.50;;;9.30;95.50;;;;;;7379859;19;20006;-73
2023/11/11 06:20:14;;;;;;;8.93;2.63;;;9.30;95.50;;;;;;7378949;19;19999;-73
2023/11/11 06:22:42;;;;;;;5.13;1.98;;;9.30;95.50;;;;;;7385620;19;20007;-73
2023/11/11 06:25:11;;;;;;;6.68;2.25;;;9.30;95.20;;;;;;7386761;19;20377;-73
2023/11/11 06:27:40;;;;;;;6.93;2.38;;;9.30;95.10;;;;;;7391306;19;20019;-74
2023/11/11 06:30:10;;;;;;;9.32;2.83;;;9.30;95.10;;;;;;7405619;19;20014;-73
2023/11/11 06:32:39;;;;;;;9.40;2.85;;;9.30;95.30;;;;;;7385427;19;20006;-73
2023/11/11 06:35:12;;;;;;;9.35;3.00;;;9.30;95.30;;;;;;7384991;19;20003;-74
2023/11/11 06:37:43;;;;;;;10.48;3.05;;;9.30;95.30;;;;;;7382681;19;20070;-72
2023/11/11 06:40:13;;;;;;;7.63;3.10;;;9.30;95.30;;;;;;7378568;19;20291;-72
2023/11/11 06:42:42;;;;;;;10.73;2.92;;;9.30;95.40;;;;;;7379267;19;20058;-73
2023/11/11 06:45:14;;;;;;;9.43;2.67;;;9.40;95.50;;;;;;7400679;19;20025;-73
2023/11/11 06:47:43;;;;;;;7.25;3.15;;;9.40;95.50;;;;;;7378838;19;20010;-72
2023/11/11 06:50:14;;;;;;;10.20;3.05;;;9.40;95.40;;;;;;7379272;19;20041;-72
2023/11/11 06:52:46;;;;;;;7.00;3.33;;;9.40;95.40;;;;;;7379325;19;20421;-73
2023/11/11 06:55:14;;;;;;;11.55;3.20;;;9.40;95.40;;;;;;7379562;19;20002;-72
2023/11/11 06:57:43;;;;;;;6.18;3.10;;;9.40;95.40;;;;;;7379148;19;20010;-71
2023/11/11 07:00:15;;;;;;;13.23;3.50;;;9.30;95.50;;;;;;7399643;19;20010;-72
2023/11/11 07:02:47;;;;;;;6.82;2.47;;;9.30;95.50;;;;;;7378147;19;20003;-72
2023/11/11 07:05:16;;;;;;;12.55;3.00;;;9.40;95.70;;;;;;7379281;19;20007;-73
2023/11/11 07:07:47;;;;;;;9.98;3.03;;;9.40;95.70;;;;;;7378638;19;20048;-73
2023/11/11 07:10:16;;;;;;;;;;;9.40;95.80;;;;;;7381350;19;20527;-74
2023/11/11 07:12:45;;;;;;;7.55;2.88;;;9.50;95.90;;;;;;7378332;19;20136;-73
2023/11/11 07:15:15;;;;;;;6.30;2.30;;;9.50;95.80;;;;;;7400092;19;20038;-73
2023/11/11 07:17:44;;;;;;;9.30;3.35;;;9.60;95.80;;;;;;7377915;19;20063;-73
2023/11/11 07:20:17;;;;;;;7.18;2.60;;;9.60;95.90;;;;;;7377871;19;20006;-72
2023/11/11 07:22:48;;;;;;;18.30;3.05;;;9.60;95.90;;;;;;7378536;19;20311;-72
2023/11/11 07:25:18;;;;;;;9.27;3.10;;;9.60;96.10;;;;;;7378432;19;20354;-73
2023/11/11 07:27:47;;;;;;;9.60;2.65;;;9.60;96.20;;;;;;7378169;19;20030;-72
2023/11/11 07:30:16;;;;;;;12.57;3.20;;;9.70;96.30;;;;;;7399316;19;20066;-73
2023/11/11 07:32:44;;;;;;;13.57;3.53;;;9.80;96.40;;;;;;7377353;19;20023;-72
2023/11/11 07:35:15;;;;;;;19.63;3.70;;;9.80;96.50;;;;;;7377675;19;20007;-73
2023/11/11 07:37:46;;;;;;;9.25;3.30;;;9.90;96.30;;;;;;7377849;19;20413;-73
2023/11/11 07:40:18;;;;;;;4.78;3.15;;;9.90;96.30;;;;;;7376598;19;20144;-73
2023/11/11 07:42:46;;;;;;;;;;;9.90;96.60;;;;;;7385388;19;20020;-73
2023/11/11 07:45:20;;;;;;;9.93;3.58;;;9.90;96.70;;;;;;7406521;19;20003;-73
2023/11/11 07:47:48;;;;;;;11.00;4.03;;;10.00;96.80;;;;;;7384543;19;20588;-73
2023/11/11 07:50:19;;;;;;;11.07;4.13;;;10.00;96.90;;;;;;7384914;19;20028;-73
2023/11/11 07:52:48;;;;;;;9.65;4.18;;;10.10;97.00;;;;;;7385590;19;20009;-73
2023/11/11 07:55:19;;;;;;;10.60;3.80;;;10.10;97.00;;;;;;7384742;19;20013;-73
2023/11/11 07:57:49;;;;;;;12.90;3.65;;;10.10;97.20;;;;;;7384683;19;20010;-73
2023/11/11 08:00:19;;;;;;;6.13;2.65;;;10.10;97.30;;;;;;7405533;19;20017;-74
2023/11/11 08:02:48;;;;;;;10.77;3.33;;;10.20;97.30;;;;;;7387355;19;20003;-73
2023/11/11 08:05:17;;;;;;;5.95;3.38;;;10.20;97.60;;;;;;7384431;19;20006;-73
2023/11/11 08:07:45;;;;;;;11.27;3.28;;;10.30;97.80;;;;;;7384349;19;20013;-73
2023/11/11 08:10:14;;;;;;;6.03;3.22;;;10.30;97.80;;;;;;7384593;19;20009;-72
2023/11/11 08:12:46;;;;;;;8.50;3.90;;;10.40;97.90;;;;;;7384175;19;20007;-72
2023/11/11 08:15:14;;;;;;;11.60;3.67;;;10.40;97.90;;;;;;7405009;19;20007;-73
2023/11/11 08:17:45;;;;;;;11.40;3.85;;;10.40;98.40;;;;;;7383070;19;20030;-77
2023/11/11 08:20:16;;;;;;;11.55;3.55;;;10.50;98.20;;;;;;7383479;19;20010;-75
2023/11/11 08:22:45;;;;;;;13.50;4.10;;;10.50;98.30;;;;;;7383642;19;20377;-78
2023/11/11 08:25:14;;;;;;;9.50;4.10;;;10.60;98.40;;;;;;7383227;19;20011;-77
2023/11/11 08:27:46;;;;;;;9.35;4.45;;;10.70;98.50;;;;;;7382669;19;20010;-75
2023/11/11 08:30:16;;;;;;;12.68;4.05;;;10.70;98.50;;;;;;7405824;19;20054;-75
2023/11/11 08:32:46;;;;;;;11.68;4.38;;;10.80;98.60;;;;;;7383491;19;20007;-77
2023/11/11 08:35:15;;;;;;;12.75;3.90;;;10.80;98.70;;;;;;7383799;19;20023;-77
2023/11/11 08:37:44;;;;;;;15.30;4.60;;;10.80;98.70;;;;;;7381957;19;20071;-76
2023/11/11 08:40:17;;;;;;;9.77;3.75;;;10.90;99.10;;;;;;7383169;19;20010;-76
2023/11/11 08:42:50;;;;;;;15.38;3.85;;;10.90;98.80;;;;;;7383924;19;20011;-79
2023/11/11 08:45:19;;;;;;;17.10;4.60;;;10.90;98.90;;;;;;7406071;19;20009;-78
2023/11/11 08:47:48;;;;;;;16.48;5.20;;;10.90;98.90;;;;;;7385618;19;20037;-79
2023/11/11 08:50:17;;;;;;;19.10;5.65;;;10.90;99.00;;;;;;7385338;19;20017;-76
2023/11/11 08:52:50;;;;;;;16.48;4.65;;;10.90;99.00;;;;;;7383434;19;20012;-79
2023/11/11 08:58:49;;;;;;;21.52;4.05;;;10.90;99.20;;;;;;7383938;19;20002;-81
2023/11/11 09:01:21;;;;;;;10.18;3.92;;;11.00;99.40;;;;;;7278453;19;2004419;-77
2023/11/11 09:03:50;;;;;;;13.35;3.08;;;11.00;99.40;;;;;;7386333;19;20066;-76
2023/11/11 09:06:19;;;;;;;11.35;3.83;;;11.00;99.40;;;;;;7415405;19;20050;-77
2023/11/11 09:08:48;;;;;;;11.68;3.95;;;11.00;99.50;;;;;;7400537;19;20003;-79
2023/11/11 09:11:17;;;;;;;21.40;3.63;;;11.00;99.50;;;;;;7404134;19;19999;-78
2023/11/11 09:13:45;;;;;;;23.88;3.72;;;11.10;99.60;;;;;;7394700;19;20021;-77
2023/11/11 09:16:38;;;;;;;13.43;3.92;;;11.10;99.60;;;;;;7386902;19;20010;-85
2023/11/11 09:19:08;;;;;;;16.88;4.22;;;11.20;99.70;;;;;;7387469;19;20014;-79
2023/11/11 09:21:42;;;;;;;12.70;4.13;;;11.20;99.70;;;;;;7409562;19;20013;-79
2023/11/11 09:24:12;;;;;;;11.75;3.50;;;11.20;99.70;;;;;;7385990;19;20005;-79
2023/11/11 09:26:44;;;;;;;8.88;3.17;;;11.20;99.80;;;;;;7385359;19;20006;-75
2023/11/11 09:29:15;;;;;;;54.65;25.25;;;11.20;99.80;;;;;;7383799;19;20269;-75
2023/11/11 09:31:49;;;;;;;15.30;4.20;;;11.30;99.70;;;;;;7385934;19;20025;-77
2023/11/11 09:34:18;;;;;;;20.20;8.13;;;11.20;99.50;;;;;;7386166;19;19999;-77
2023/11/11 09:36:46;;;;;;;15.15;3.08;;;11.20;99.40;;;;;;7386223;19;20019;-76
2023/11/11 09:39:17;;;;;;;6.15;2.20;;;11.20;99.50;;;;;;7404729;19;20015;-76
2023/11/11 09:41:46;;;;;;;11.48;3.45;;;11.30;99.40;;;;;;7382649;19;20155;-74
2023/11/11 09:44:21;;;;;;;9.45;2.50;;;11.30;99.30;;;;;;7382408;19;20413;-80
2023/11/11 09:46:56;;;;;;;5.05;1.50;;;11.30;99.20;;;;;;7388805;19;20367;-79
2023/11/11 09:49:27;;;;;;;9.23;1.90;;;11.30;99.20;;;;;;7386426;19;20002;-78
2023/11/11 09:51:57;;;;;;;9.23;2.60;;;11.40;99.10;;;;;;7384319;19;20247;-75
2023/11/11 09:54:26;;;;;;;7.57;2.67;;;11.50;99.10;;;;;;7404840;19;20295;-76
2023/11/11 09:56:56;;;;;;;6.90;2.20;;;11.50;99.00;;;;;;7382067;19;20288;-76
2023/11/11 10:13:17;;;;;;;12.73;2.22;;;11.60;99.00;;;;;;7357013;19;20015;-79
2023/11/11 10:15:45;;;;;;;8.27;2.13;;;11.70;99.10;;;;;;7385832;19;20027;-80
2023/11/11 10:18:14;;;;;;;8.90;2.00;;;11.70;99.00;;;;;;7405816;19;20006;-75
2023/11/11 10:20:47;;;;;;;14.55;2.00;;;11.70;98.90;;;;;;7383304;19;20003;-79
2023/11/11 10:37:29;;;;;;;15.27;2.05;;;11.80;98.80;;;;;;7366034;19;20042;-81
2023/11/11 10:39:58;;;;;;;12.77;2.40;;;11.70;98.80;;;;;;7383476;19;20030;-77
2023/11/11 10:42:27;;;;;;;74.80;32.33;;;11.80;98.80;;;;;;7403439;19;20003;-78
2023/11/11 10:44:59;;;;;;;24.95;6.78;;;11.70;98.80;;;;;;7383189;19;20370;-81
2023/11/11 10:47:29;;;;;;;10.32;2.13;;;11.70;98.80;;;;;;7380791;19;20024;-79
2023/11/11 10:50:00;;;;;;;6.20;2.85;;;11.60;98.80;;;;;;7381645;19;20010;-79
2023/11/11 10:52:37;;;;;;;14.07;2.10;;;11.70;98.90;;;;;;7382239;19;20013;-77
2023/11/11 10:55:11;;;;;;;9.77;1.98;;;11.60;99.00;;;;;;7389053;19;20006;-81
2023/11/11 10:57:41;;;;;;;14.13;2.40;;;11.60;99.10;;;;;;7386206;19;20047;-81
2023/11/11 11:00:19;;;;;;;13.35;2.17;;;11.60;99.10;;;;;;7404967;19;20010;-80
2023/11/11 11:02:49;;;;;;;13.77;2.17;;;11.70;98.80;;;;;;7382331;19;20006;-79
2023/11/11 11:05:30;;;;;;;9.17;1.70;;;11.70;98.80;;;;;;7383705;19;20346;-79
2023/11/11 11:08:11;;;;;;;12.10;1.67;;;11.70;98.80;;;;;;7383965;19;20028;-79
2023/11/11 11:10:48;;;;;;;10.95;2.20;;;11.70;98.80;;;;;;7386225;19;20010;-78
2023/11/11 11:13:19;;;;;;;14.32;2.40;;;11.80;98.80;;;;;;7397406;19;20027;-77
2023/11/11 11:15:48;;;;;;;;;;;11.90;98.80;;;;;;7399163;19;20039;-77
2023/11/11 11:18:26;;;;;;;7.10;2.13;;;11.70;98.90;;;;;;7421927;19;20003;-78
2023/11/11 11:20:56;;;;;;;5.97;2.10;;;11.80;99.10;;;;;;7395344;19;20006;-79
2023/11/11 11:23:27;;;;;;;7.32;1.58;;;11.80;98.90;;;;;;7389668;19;20014;-78
2023/11/11 11:25:57;;;;;;;13.23;1.75;;;11.90;99.00;;;;;;7387907;19;20027;-79
2023/11/11 11:28:27;;;;;;;7.18;1.98;;;11.90;98.20;;;;;;7384858;19;20296;-79
2023/11/11 11:30:58;;;;;;;8.02;1.67;;;12.00;98.20;;;;;;7382767;19;20066;-78
2023/11/11 11:33:28;;;;;;;7.72;2.10;;;12.00;97.90;;;;;;7404522;19;20079;-78
2023/11/11 11:36:01;;;;;;;7.40;1.67;;;12.00;97.90;;;;;;7381617;19;20221;-79
2023/11/11 11:38:34;;;;;;;15.63;1.90;;;12.20;97.90;;;;;;7382852;19;20009;-79
2023/11/11 11:41:06;;;;;;;6.57;2.05;;;12.30;97.90;;;;;;7381993;19;20007;-78
2023/11/11 11:43:36;;;;;;;10.75;2.17;;;12.30;97.60;;;;;;7383135;19;20007;-80
2023/11/11 11:46:05;;;;;;;18.75;2.30;;;12.40;97.80;;;;;;7386122;19;20023;-80
2023/11/11 11:48:35;;;;;;;10.15;1.90;;;12.40;97.70;;;;;;7406324;19;20010;-79
2023/11/11 11:51:10;;;;;;;9.05;2.17;;;12.40;97.60;;;;;;7384389;19;20015;-80
2023/11/11 11:53:43;;;;;;;11.75;2.00;;;12.50;97.80;;;;;;7378747;19;20069;-76
2023/11/11 11:56:13;;;;;;;9.90;2.00;;;12.50;97.70;;;;;;7377597;19;20074;-77
2023/11/11 11:58:48;;;;;;;13.03;1.70;;;12.60;97.60;;;;;;7379329;19;20497;-75
2023/11/11 12:01:28;;;;;;;17.40;2.13;;;12.70;97.70;;;;;;7379597;19;20024;-76
2023/11/11 12:03:57;;;;;;;22.48;2.58;;;12.90;97.60;;;;;;7379181;19;20007;-76
2023/11/11 12:06:27;;;;;;;26.05;2.85;;;12.90;96.90;;;;;;7400196;19;20286;-77
2023/11/11 12:08:59;;;;;;;14.35;1.98;;;13.00;96.90;;;;;;7376654;19;20011;-74
2023/11/11 12:11:29;;;;;;;11.02;2.33;;;13.10;96.80;;;;;;7376172;19;20007;-78
2023/11/11 12:13:59;;;;;;;12.60;2.30;;;13.10;96.80;;;;;;7376467;19;20023;-76
2023/11/11 12:16:41;;;;;;;11.82;2.13;;;13.20;96.30;;;;;;7376758;19;20285;-76
2023/11/11 12:19:11;;;;;;;12.70;2.50;;;13.20;96.50;;;;;;7379858;19;20018;-76
2023/11/11 12:21:43;;;;;;;21.77;2.60;;;13.30;96.50;;;;;;7379792;19;20398;-77
2023/11/11 12:24:16;;;;;;;15.55;2.25;;;13.20;96.20;;;;;;7397718;19;20339;-78
2023/11/11 12:26:50;;;;;;;8.07;1.95;;;13.20;96.10;;;;;;7381581;19;20031;-80
2023/11/11 12:29:19;;;;;;;11.05;2.22;;;13.30;96.10;;;;;;7381869;19;20124;-77
2023/11/11 12:31:49;;;;;;;15.10;2.53;;;13.30;95.40;;;;;;7385304;19;20346;-77
2023/11/11 12:34:19;;;;;;;12.55;3.10;;;13.30;95.40;;;;;;7382148;19;20003;-77
2023/11/11 12:39:26;;;;;;;10.40;2.42;;;13.10;94.50;;;;;;7353045;19;20029;-80
2023/11/11 12:41:57;;;;;;;11.90;2.17;;;13.10;94.80;;;;;;7406819;19;20393;-80
2023/11/11 12:44:26;;;;;;;16.38;2.67;;;13.20;94.70;;;;;;7386943;19;20010;-79
2023/11/11 12:46:56;;;;;;;20.02;2.70;;;13.20;94.30;;;;;;7406106;19;20011;-78
2023/11/11 12:49:27;;;;;;;12.23;2.25;;;13.20;94.20;;;;;;7401759;19;20010;-77
2023/11/11 12:51:58;;;;;;;12.30;2.72;;;13.30;94.20;;;;;;7406165;19;20029;-78
2023/11/11 12:54:35;;;;;;;11.52;2.03;;;13.30;93.90;;;;;;7427321;19;20011;-79
2023/11/11 12:57:04;;;;;;;14.52;2.15;;;13.40;94.20;;;;;;7389290;19;20014;-77
2023/11/11 12:59:33;;;;;;;15.80;2.55;;;13.50;93.70;;;;;;7383039;19;20074;-77
2023/11/11 13:02:06;;;;;;;18.48;2.53;;;13.30;92.80;;;;;;7384872;19;20015;-78
2023/11/11 13:04:35;;;;;;;10.73;1.67;;;13.30;93.30;;;;;;7384622;19;20003;-78
2023/11/11 13:07:03;;;;;;;23.67;2.65;;;13.40;93.50;;;;;;7384432;19;20028;-80
2023/11/11 13:09:45;;;;;;;14.52;2.25;;;13.50;93.30;;;;;;7408854;19;20014;-83
2023/11/11 13:12:16;;;;;;;18.20;2.33;;;13.60;93.00;;;;;;7386706;19;20007;-79
2023/11/11 13:14:46;;;;;;;17.73;2.60;;;13.60;92.80;;;;;;7385399;19;20010;-79
2023/11/11 13:17:15;;;;;;;8.65;2.17;;;13.60;92.70;;;;;;7386979;19;20003;-78
2023/11/11 13:19:45;;;;;;;10.73;2.03;;;13.60;92.70;;;;;;7385073;19;20031;-80
2023/11/11 13:22:14;;;;;;;21.33;2.35;;;13.60;92.90;;;;;;7386473;19;20329;-79
2023/11/11 13:24:47;;;;;;;12.80;2.20;;;13.50;93.10;;;;;;7386307;19;20224;-80
2023/11/11 13:27:15;;;;;;;11.52;1.88;;;13.60;92.90;;;;;;7407699;19;20028;-80
2023/11/11 13:29:44;;;;;;;10.50;1.65;;;13.60;92.90;;;;;;7386467;19;20031;-80
2023/11/11 13:32:13;;;;;;;12.45;1.73;;;13.60;92.70;;;;;;7387902;19;20003;-78
2023/11/11 13:34:44;;;;;;;6.13;1.90;;;13.30;92.30;;;;;;7385710;19;20006;-80